createdAt,value
2023-04-09T00:01:28.629Z,27.77
2023-04-09T00:03:56.024Z,35.55
2023-04-09T00:06:23.330Z,32.90
2023-04-09T00:08:50.911Z,35.83
2023-04-09T00:11:18.309Z,30.00
2023-04-09T00:13:45.695Z,31.05
2023-04-09T00:16:12.967Z,33.20
2023-04-09T00:18:40.453Z,30.75
2023-04-09T00:21:08.907Z,31.70
2023-04-09T00:23:36.625Z,32.58
2023-04-09T00:26:03.787Z,33.95
2023-04-09T00:28:31.029Z,37.75
2023-04-09T00:30:58.248Z,37.22
2023-04-09T00:33:25.903Z,41.15
2023-04-09T00:35:53.105Z,40.33
2023-04-09T00:38:20.471Z,46.60
2023-04-09T00:40:47.637Z,39.88
2023-04-09T00:43:14.932Z,41.55
2023-04-09T00:45:42.265Z,40.00
2023-04-09T00:48:09.552Z,38.45
2023-04-09T00:50:36.806Z,44.30
2023-04-09T00:53:04.094Z,38.88
2023-04-09T00:55:31.508Z,39.03
2023-04-09T00:57:58.771Z,38.75
2023-04-09T01:00:28.131Z,44.63
2023-04-09T01:02:55.504Z,37.70
2023-04-09T01:05:22.885Z,32.72
2023-04-09T01:07:51.223Z,37.53
2023-04-09T01:10:18.543Z,35.85
2023-04-09T01:12:46.404Z,31.45
2023-04-09T01:15:13.826Z,37.67
2023-04-09T01:17:41.258Z,31.63
2023-04-09T01:20:08.561Z,32.20
2023-04-09T01:22:35.738Z,31.73
2023-04-09T01:25:03.389Z,39.72
2023-04-09T01:27:37.773Z,42.25
2023-04-09T01:30:05.127Z,31.13
2023-04-09T01:32:33.642Z,31.02
2023-04-09T01:35:00.892Z,31.77
2023-04-09T01:37:28.115Z,37.78
2023-04-09T01:39:55.392Z,36.78
2023-04-09T01:42:22.553Z,31.52
2023-04-09T01:44:49.761Z,38.30
2023-04-09T01:47:17.098Z,37.28
2023-04-09T01:49:44.353Z,34.13
2023-04-09T01:52:11.621Z,32.33
2023-04-09T01:54:39.117Z,32.90
2023-04-09T01:57:06.600Z,34.08
2023-04-09T01:59:33.922Z,30.25
2023-04-09T02:02:01.332Z,31.00
2023-04-09T02:04:28.547Z,30.58
2023-04-09T02:06:56.170Z,32.00
2023-04-09T02:09:23.387Z,27.75
2023-04-09T02:11:50.966Z,30.35
2023-04-09T02:14:18.177Z,33.70
2023-04-09T02:16:47.808Z,31.67
2023-04-09T02:19:15.166Z,35.25
2023-04-09T02:21:42.705Z,30.85
2023-04-09T02:24:09.925Z,27.52
2023-04-09T02:26:37.145Z,30.88
2023-04-09T02:29:04.358Z,29.27
2023-04-09T02:31:31.756Z,27.35
2023-04-09T02:33:59.036Z,33.22
2023-04-09T02:36:27.715Z,33.97
2023-04-09T02:38:55.675Z,30.67
2023-04-09T02:41:23.188Z,36.67
2023-04-09T02:43:50.348Z,30.33
2023-04-09T02:46:17.606Z,30.67
2023-04-09T02:48:44.848Z,34.30
2023-04-09T02:51:12.403Z,32.53
2023-04-09T02:53:41.167Z,35.08
2023-04-09T02:56:08.486Z,32.45
2023-04-09T02:58:35.741Z,28.63
2023-04-09T03:01:03.009Z,35.58
2023-04-09T03:03:31.098Z,28.08
2023-04-09T03:05:58.649Z,33.42
2023-04-09T03:08:26.083Z,33.58
2023-04-09T03:10:53.292Z,32.55
2023-04-09T03:13:20.501Z,37.42
2023-04-09T03:15:47.840Z,38.05
2023-04-09T03:18:15.051Z,38.75
2023-04-09T03:20:42.556Z,31.88
2023-04-09T03:23:11.861Z,31.95
2023-04-09T03:25:43.577Z,33.47
2023-04-09T03:28:14.373Z,36.85
2023-04-09T03:30:51.534Z,40.22
2023-04-09T03:33:21.243Z,34.50
2023-04-09T03:35:54.452Z,33.05
2023-04-09T03:38:37.136Z,44.20
2023-04-09T03:41:10.317Z,35.17
2023-04-09T03:43:37.678Z,35.45
2023-04-09T03:46:05.700Z,36.88
2023-04-09T03:48:32.985Z,38.78
2023-04-09T03:51:00.893Z,33.72
2023-04-09T03:53:36.204Z,36.72
2023-04-09T03:56:06.479Z,42.95
2023-04-09T03:58:34.923Z,33.20
2023-04-09T04:01:02.087Z,35.63
2023-04-09T04:03:37.079Z,33.67
2023-04-09T04:06:16.090Z,35.45
2023-04-09T04:09:04.313Z,42.20
2023-04-09T04:11:49.164Z,41.88
2023-04-09T04:14:17.522Z,43.40
2023-04-09T04:16:48.920Z,39.70
2023-04-09T04:19:19.817Z,41.20
2023-04-09T04:21:50.208Z,40.97
2023-04-09T04:24:17.709Z,38.40
2023-04-09T04:26:44.949Z,39.47
2023-04-09T04:29:15.566Z,42.58
2023-04-09T04:31:55.669Z,36.60
2023-04-09T04:34:25.699Z,36.35
2023-04-09T04:37:09.224Z,35.25
2023-04-09T04:39:36.463Z,39.72
2023-04-09T04:42:09.202Z,36.55
2023-04-09T04:44:36.927Z,34.40
2023-04-09T04:47:27.190Z,29.35
2023-04-09T06:49:36.040Z,23.70
2023-04-09T06:52:03.584Z,24.88
2023-04-09T06:54:30.791Z,20.95
2023-04-09T06:56:58.076Z,34.53
2023-04-09T06:59:25.446Z,38.97
2023-04-09T07:01:54.543Z,53.05
2023-04-09T07:04:22.187Z,23.08
2023-04-09T07:06:49.616Z,55.85
2023-04-09T07:09:17.682Z,50.72
2023-04-09T07:11:45.006Z,27.17
2023-04-09T07:14:12.235Z,31.05
2023-04-09T07:16:39.548Z,24.20
2023-04-09T07:19:07.562Z,28.10
2023-04-09T07:21:34.810Z,29.20
2023-04-09T07:24:02.104Z,23.77
2023-04-09T07:26:29.861Z,24.42
2023-04-09T07:28:58.135Z,22.95
2023-04-09T07:31:25.610Z,24.45
2023-04-09T07:33:52.944Z,24.17
2023-04-09T07:36:21.012Z,23.65
2023-04-09T07:38:48.604Z,22.58
2023-04-09T07:41:15.951Z,25.23
2023-04-09T07:43:43.287Z,17.98
2023-04-09T07:46:10.520Z,23.55
2023-04-09T07:48:37.728Z,23.63
2023-04-09T07:51:06.215Z,19.73
2023-04-09T07:53:33.365Z,20.63
2023-04-09T07:56:00.602Z,25.15
2023-04-09T07:58:28.328Z,20.33
2023-04-09T08:00:55.634Z,22.25
2023-04-09T08:03:23.329Z,24.30
2023-04-09T08:05:50.671Z,21.70
2023-04-09T08:08:17.981Z,24.35
2023-04-09T08:10:45.382Z,21.85
2023-04-09T08:13:12.531Z,26.38
2023-04-09T08:15:39.795Z,24.08
2023-04-09T08:18:07.363Z,23.98
2023-04-09T08:20:34.650Z,21.08
2023-04-09T08:23:01.980Z,29.73
2023-04-09T08:25:29.261Z,21.92
2023-04-09T08:27:56.985Z,24.85
2023-04-09T08:30:24.203Z,25.92
2023-04-09T08:32:51.423Z,25.38
2023-04-09T08:35:18.795Z,24.55
2023-04-09T08:37:45.969Z,22.67
2023-04-09T08:40:13.216Z,21.52
2023-04-09T08:42:40.761Z,26.10
2023-04-09T08:45:08.107Z,23.05
2023-04-09T08:47:35.534Z,23.27
2023-04-09T08:50:02.840Z,26.10
2023-04-09T08:52:30.019Z,28.33
2023-04-09T08:54:57.397Z,28.50
2023-04-09T08:57:24.594Z,24.52
2023-04-09T08:59:52.040Z,24.20
2023-04-09T09:02:19.271Z,26.25
2023-04-09T09:04:46.643Z,23.58
2023-04-09T09:07:13.833Z,22.35
2023-04-09T09:09:41.101Z,25.13
2023-04-09T09:12:08.594Z,22.80
2023-04-09T09:14:35.878Z,20.20
2023-04-09T09:17:03.886Z,19.70
2023-04-09T09:19:31.197Z,17.15
2023-04-09T09:21:58.404Z,16.98
2023-04-09T09:24:25.865Z,15.00
2023-04-09T09:26:54.506Z,19.10
2023-04-09T09:29:21.935Z,18.90
2023-04-09T09:31:49.480Z,12.52
2023-04-09T09:34:17.388Z,17.27
2023-04-09T09:36:44.959Z,15.30
2023-04-09T09:39:13.160Z,14.68
2023-04-09T09:41:40.426Z,15.90
2023-04-09T09:44:07.658Z,19.48
2023-04-09T09:46:34.975Z,15.85
2023-04-09T09:49:02.273Z,15.30
2023-04-09T09:51:29.522Z,14.27
2023-04-09T09:53:57.225Z,14.10
2023-04-09T09:56:25.255Z,12.40
2023-04-09T09:58:52.733Z,16.63
2023-04-09T10:01:20.417Z,15.18
2023-04-09T10:03:47.635Z,13.35
2023-04-09T10:06:14.871Z,12.75
2023-04-09T10:08:42.309Z,12.07
2023-04-09T10:11:09.590Z,14.68
2023-04-09T10:13:36.776Z,15.02
2023-04-09T10:16:04.036Z,16.58
2023-04-09T10:18:33.582Z,13.55
2023-04-09T10:21:01.121Z,12.60
2023-04-09T10:23:28.435Z,13.23
2023-04-09T10:25:55.765Z,14.50
2023-04-09T10:28:22.992Z,14.00
2023-04-09T10:30:50.371Z,13.77
2023-04-09T10:33:19.370Z,17.95
2023-04-09T10:35:46.685Z,12.25
2023-04-09T10:38:13.935Z,14.85
2023-04-09T10:40:41.665Z,18.95
2023-04-09T10:43:08.994Z,17.25
2023-04-09T10:45:36.246Z,14.93
2023-04-09T10:48:03.597Z,15.30
2023-04-09T10:50:32.574Z,13.70
2023-04-09T10:53:00.862Z,15.75
2023-04-09T10:55:28.138Z,13.73
2023-04-09T10:57:55.385Z,17.00
2023-04-09T11:00:22.693Z,15.57
2023-04-09T11:02:50.296Z,14.85
2023-04-09T11:05:17.602Z,12.57
2023-04-09T11:07:45.135Z,15.93
2023-04-09T11:10:12.397Z,14.48
2023-04-09T11:12:39.721Z,14.40
2023-04-09T11:15:07.086Z,14.88
2023-04-09T11:17:34.458Z,12.63
2023-04-09T11:20:02.457Z,15.85
2023-04-09T11:22:29.647Z,13.05
2023-04-09T11:24:56.960Z,15.52
2023-04-09T11:27:24.240Z,13.32
2023-04-09T11:29:51.505Z,17.33
2023-04-09T11:32:18.782Z,13.35
2023-04-09T11:34:46.158Z,14.60
2023-04-09T11:37:13.319Z,19.17
2023-04-09T11:39:41.094Z,15.55
2023-04-09T11:42:08.363Z,14.85
2023-04-09T11:44:35.898Z,13.38
2023-04-09T11:47:03.207Z,13.02
2023-04-09T11:49:30.893Z,15.32
2023-04-09T11:51:58.589Z,12.63
2023-04-09T11:54:25.852Z,14.07
2023-04-09T11:56:56.090Z,13.95
2023-04-09T11:59:23.327Z,14.57
2023-04-09T12:01:51.474Z,11.95
2023-04-09T12:04:19.190Z,13.30
2023-04-09T12:06:46.568Z,14.75
2023-04-09T12:09:14.310Z,14.90
2023-04-09T12:11:42.151Z,14.45
2023-04-09T12:14:11.007Z,11.48
2023-04-09T12:16:38.226Z,12.20
2023-04-09T12:19:05.576Z,9.52
2023-04-09T12:21:33.795Z,12.18
2023-04-09T12:24:01.261Z,14.65
2023-04-09T12:26:28.489Z,14.07
2023-04-09T12:28:55.741Z,10.18
2023-04-09T12:31:23.029Z,9.38
2023-04-09T12:33:50.389Z,12.40
2023-04-09T12:36:17.735Z,11.77
2023-04-09T12:38:44.993Z,9.30
2023-04-09T12:41:13.331Z,8.57
2023-04-09T12:43:41.665Z,10.45
2023-04-09T12:46:10.641Z,11.05
2023-04-09T12:48:37.966Z,11.00
2023-04-09T12:51:05.211Z,12.82
2023-04-09T12:53:32.489Z,11.20
2023-04-09T12:55:59.721Z,12.27
2023-04-09T12:58:27.465Z,11.55
2023-04-09T13:00:56.758Z,8.93
2023-04-09T13:03:24.250Z,14.00
2023-04-09T13:05:51.734Z,10.43
2023-04-09T13:08:19.083Z,12.60
2023-04-09T13:10:46.459Z,12.70
2023-04-09T13:13:13.904Z,9.75
2023-04-09T13:15:43.670Z,9.65
2023-04-09T13:18:11.107Z,10.30
2023-04-09T13:20:38.657Z,11.80
2023-04-09T13:23:06.514Z,10.57
2023-04-09T13:25:33.763Z,8.68
2023-04-09T13:28:01.053Z,9.55
2023-04-09T13:30:28.246Z,9.38
2023-04-09T13:32:55.562Z,11.65
2023-04-09T13:35:22.864Z,10.30
2023-04-09T13:37:50.131Z,10.38
2023-04-09T13:40:17.791Z,9.85
2023-04-09T13:42:45.062Z,12.57
2023-04-09T13:45:12.240Z,10.68
2023-04-09T13:47:39.688Z,9.48
2023-04-09T13:50:07.481Z,8.38
2023-04-09T13:52:34.804Z,12.00
2023-04-09T13:55:03.610Z,8.27
2023-04-09T13:57:30.897Z,12.73
2023-04-09T14:00:01.826Z,8.27
2023-04-09T14:02:32.255Z,10.15
2023-04-09T14:04:59.724Z,7.10
2023-04-09T14:07:27.044Z,6.97
2023-04-09T14:09:54.270Z,5.93
2023-04-09T14:12:21.750Z,6.07
2023-04-09T14:14:50.033Z,7.72
2023-04-09T14:17:17.256Z,8.98
2023-04-09T14:19:44.496Z,8.75
2023-04-09T14:22:11.781Z,7.72
2023-04-09T14:24:40.196Z,5.78
2023-04-09T14:27:08.228Z,5.55
2023-04-09T14:29:35.481Z,6.93
2023-04-09T14:32:02.725Z,9.95
2023-04-09T14:34:29.970Z,9.20
2023-04-09T14:36:57.312Z,10.57
2023-04-09T14:39:24.492Z,9.63
2023-04-09T14:41:51.871Z,6.80
2023-04-09T14:44:19.184Z,10.27
2023-04-09T14:46:46.458Z,7.20
2023-04-09T14:49:13.734Z,10.40
2023-04-09T14:51:41.071Z,11.32
2023-04-09T14:54:08.251Z,13.80
2023-04-09T14:56:35.457Z,8.93
2023-04-09T14:59:02.722Z,12.98
2023-04-09T15:01:31.245Z,10.57
2023-04-09T15:04:00.533Z,9.15
2023-04-09T15:06:28.064Z,14.32
2023-04-09T15:08:55.324Z,9.73
2023-04-09T15:11:25.698Z,13.48
2023-04-09T15:13:52.955Z,13.02
2023-04-09T15:16:20.389Z,17.65
2023-04-09T15:18:49.803Z,14.20
2023-04-09T15:21:17.104Z,15.02
2023-04-09T15:23:44.412Z,14.45
2023-04-09T15:26:11.680Z,16.55
2023-04-09T15:28:38.945Z,15.90
2023-04-09T15:31:06.216Z,10.70
2023-04-09T15:33:33.556Z,14.60
2023-04-09T15:36:00.759Z,15.63
2023-04-09T15:38:28.142Z,17.40
2023-04-09T15:40:55.470Z,13.15
2023-04-09T15:43:23.390Z,21.00
2023-04-09T15:45:50.964Z,19.90
2023-04-09T15:48:19.308Z,17.80
2023-04-09T15:50:46.767Z,27.95
2023-04-09T15:53:14.187Z,18.52
2023-04-09T15:55:41.468Z,17.00
2023-04-09T15:58:08.793Z,17.40
2023-04-09T16:00:36.407Z,18.95
2023-04-09T16:03:03.821Z,11.00
2023-04-09T16:05:31.102Z,14.00
2023-04-09T16:07:59.977Z,16.65
2023-04-09T16:10:27.376Z,13.23
2023-04-09T16:12:54.672Z,14.52
2023-04-09T16:15:21.958Z,9.48
2023-04-09T16:17:49.311Z,13.50
2023-04-09T16:20:16.592Z,11.90
2023-04-09T16:22:43.855Z,9.45
2023-04-09T16:25:11.173Z,16.15
2023-04-09T16:27:38.459Z,11.43
2023-04-09T16:30:05.971Z,5.32
2023-04-09T16:32:33.250Z,11.10
2023-04-09T16:35:00.860Z,9.20
2023-04-09T16:37:29.363Z,16.98
2023-04-09T16:39:57.369Z,13.10
2023-04-09T16:42:26.824Z,7.82
2023-04-09T16:44:54.394Z,17.58
2023-04-09T16:47:21.732Z,7.60
2023-04-09T16:49:48.966Z,7.93
2023-04-09T16:52:16.441Z,8.15
2023-04-09T16:54:43.656Z,10.98
2023-04-09T16:57:11.197Z,20.67
2023-04-09T16:59:40.708Z,10.55
2023-04-09T17:02:08.101Z,15.70
2023-04-09T17:04:37.558Z,11.55
2023-04-09T17:07:04.834Z,19.50
2023-04-09T17:09:32.111Z,14.73
2023-04-09T17:11:59.356Z,16.17
2023-04-09T17:14:27.516Z,15.93
2023-04-09T17:16:55.048Z,17.50
2023-04-09T17:19:22.366Z,24.75
2023-04-09T17:21:49.747Z,18.08
2023-04-09T17:24:16.969Z,11.82
2023-04-09T17:26:44.193Z,22.60
2023-04-09T17:29:11.440Z,22.25
2023-04-09T17:31:38.893Z,24.25
2023-04-09T17:34:06.362Z,25.17
2023-04-09T17:36:33.661Z,24.80
2023-04-09T17:39:00.850Z,16.52
2023-04-09T17:41:28.133Z,13.70
2023-04-09T17:43:55.313Z,13.05
2023-04-09T17:46:22.794Z,25.15
2023-04-09T17:48:50.211Z,14.07
2023-04-09T17:51:18.510Z,20.10
2023-04-09T17:53:45.959Z,21.75
2023-04-09T17:56:13.218Z,20.02
2023-04-09T17:58:40.457Z,7.63
2023-04-09T18:01:08.015Z,13.80
2023-04-09T18:03:35.738Z,9.77
2023-04-09T18:06:03.392Z,10.70
2023-04-09T18:08:30.841Z,8.48
2023-04-09T18:11:11.368Z,19.58
2023-04-09T18:13:39.844Z,8.38
2023-04-09T18:16:07.184Z,13.77
2023-04-09T18:18:34.559Z,11.00
2023-04-09T18:21:01.787Z,7.32
2023-04-09T18:23:29.101Z,7.03
2023-04-09T18:25:56.392Z,7.75
2023-04-09T18:28:23.712Z,10.82
2023-04-09T18:30:51.610Z,12.40
2023-04-09T18:33:18.997Z,9.88
2023-04-09T18:35:46.548Z,13.15
2023-04-09T18:38:13.885Z,13.40
2023-04-09T18:40:41.396Z,15.65
2023-04-09T18:43:08.806Z,18.70
2023-04-09T18:45:36.095Z,11.90
2023-04-09T18:48:03.433Z,25.83
2023-04-09T18:50:30.787Z,18.42
2023-04-09T18:52:58.084Z,18.75
2023-04-09T18:55:25.374Z,25.23
2023-04-09T18:57:52.651Z,17.63
2023-04-09T19:00:19.854Z,30.23
2023-04-09T19:02:47.931Z,11.27
2023-04-09T19:05:15.303Z,26.25
2023-04-09T19:07:43.439Z,15.98
2023-04-09T19:10:10.919Z,12.30
2023-04-09T19:12:38.247Z,18.98
2023-04-09T19:15:06.265Z,18.15
2023-04-09T19:17:34.171Z,17.35
2023-04-09T19:20:01.399Z,23.52
2023-04-09T19:22:28.654Z,16.27
2023-04-09T19:24:56.165Z,32.60
2023-04-09T19:27:23.410Z,22.70
2023-04-09T19:29:50.817Z,21.55
2023-04-09T19:32:18.071Z,20.50
2023-04-09T19:34:45.333Z,19.83
2023-04-09T19:37:15.182Z,24.63
2023-04-09T19:39:42.430Z,18.52
2023-04-09T19:42:09.777Z,12.60
2023-04-09T19:44:37.106Z,12.50
2023-04-09T19:47:04.498Z,12.48
2023-04-09T19:49:31.798Z,15.13
2023-04-09T19:51:59.036Z,15.95
2023-04-09T19:54:26.746Z,15.70
2023-04-09T19:56:53.968Z,20.42
2023-04-09T19:59:21.770Z,9.70
2023-04-09T20:01:49.236Z,11.43
2023-04-09T20:04:16.850Z,14.15
2023-04-09T20:06:44.137Z,10.18
2023-04-09T20:09:14.493Z,16.50
2023-04-09T20:11:42.201Z,17.42
2023-04-09T20:14:12.260Z,11.65
2023-04-09T20:16:39.667Z,13.93
2023-04-09T20:19:06.944Z,11.55
2023-04-09T20:21:34.484Z,12.55
2023-04-09T20:24:02.604Z,10.75
2023-04-09T20:26:29.899Z,18.42
2023-04-09T20:28:57.578Z,12.85
2023-04-09T20:31:24.875Z,9.70
2023-04-09T20:33:52.063Z,14.55
2023-04-09T20:36:19.383Z,18.73
2023-04-09T20:38:46.710Z,14.32
2023-04-09T20:41:14.033Z,14.43
2023-04-09T20:43:41.366Z,10.55
2023-04-09T20:46:08.758Z,12.80
2023-04-09T20:48:36.309Z,11.35
2023-04-09T20:51:03.841Z,11.10
2023-04-09T20:53:31.110Z,23.27
2023-04-09T20:55:58.706Z,11.05
2023-04-09T20:58:26.165Z,14.55
2023-04-09T21:00:54.493Z,24.90
2023-04-09T21:03:21.903Z,25.10
2023-04-09T21:05:49.317Z,19.20
2023-04-09T21:08:16.560Z,24.55
2023-04-09T21:10:43.902Z,9.27
2023-04-09T21:13:11.247Z,10.30
2023-04-09T21:15:38.460Z,16.38
2023-04-09T21:18:05.728Z,8.05
2023-04-09T21:20:33.071Z,7.60
2023-04-09T21:23:00.456Z,17.90
2023-04-09T21:25:27.780Z,19.75
2023-04-09T21:27:55.123Z,17.17
2023-04-09T21:30:22.496Z,12.88
2023-04-09T21:32:49.793Z,7.50
2023-04-09T21:35:17.232Z,14.15
2023-04-09T21:37:44.505Z,12.50
2023-04-09T21:40:11.731Z,10.55
2023-04-09T21:42:39.022Z,14.90
2023-04-09T21:45:06.549Z,16.23
2023-04-09T21:47:33.777Z,17.67
2023-04-09T21:50:01.240Z,23.08
2023-04-09T21:52:28.468Z,10.50
2023-04-09T21:54:55.797Z,9.63
2023-04-09T21:57:23.083Z,11.80
2023-04-09T21:59:50.370Z,11.32
2023-04-09T22:02:17.685Z,9.43
2023-04-09T22:04:45.075Z,17.67
2023-04-09T22:07:12.331Z,12.15
2023-04-09T22:09:39.625Z,19.23
2023-04-09T22:12:07.139Z,9.88
2023-04-09T22:14:34.356Z,10.68
2023-04-09T22:17:01.834Z,12.68
2023-04-09T22:19:29.172Z,10.77
2023-04-09T22:21:56.336Z,18.80
2023-04-09T22:24:27.181Z,15.43
2023-04-09T22:26:54.598Z,16.27
2023-04-09T22:29:21.839Z,13.05
2023-04-09T22:31:49.032Z,16.60
2023-04-09T22:34:21.242Z,19.05
2023-04-09T22:36:49.483Z,20.83
2023-04-09T22:39:16.765Z,18.30
2023-04-09T22:41:44.084Z,14.85
2023-04-09T22:44:11.346Z,18.30
2023-04-09T22:46:38.634Z,15.50
2023-04-09T22:49:06.407Z,11.75
2023-04-09T22:51:36.772Z,15.95
2023-04-09T22:54:04.048Z,11.40
2023-04-09T22:56:31.810Z,18.52
2023-04-09T22:58:59.281Z,10.75
2023-04-09T23:01:26.672Z,14.38
2023-04-09T23:03:54.087Z,15.00
2023-04-09T23:06:22.604Z,16.13
2023-04-09T23:08:50.464Z,16.55
2023-04-09T23:11:17.697Z,12.73
2023-04-09T23:13:44.982Z,22.73
2023-04-09T23:16:12.291Z,15.63
2023-04-09T23:18:39.542Z,17.58
2023-04-09T23:21:07.130Z,17.15
2023-04-09T23:23:34.422Z,16.85
2023-04-09T23:26:01.830Z,19.95
2023-04-09T23:28:29.182Z,10.15
2023-04-09T23:30:56.910Z,13.98
2023-04-09T23:33:24.279Z,16.50
2023-04-09T23:35:51.557Z,11.77
2023-04-09T23:38:18.904Z,12.23
2023-04-09T23:40:47.505Z,15.77
2023-04-09T23:43:14.784Z,20.77
2023-04-09T23:45:42.005Z,19.25
2023-04-09T23:48:09.289Z,17.40
2023-04-09T23:50:36.634Z,17.40
2023-04-09T23:53:04.497Z,15.55
2023-04-09T23:55:33.383Z,16.90
2023-04-09T23:58:01.698Z,29.88
